sensor_id;sensor_type;location;lat;lon;timestamp;P1;durP1;ratioP1;P2;durP2;ratioP2
76256;SDS011;65074;50.436;8.672;2023-08-06T00:00:39;11.80;;;8.07;;
76256;SDS011;65074;50.436;8.672;2023-08-06T00:03:04;9.60;;;7.37;;
76256;SDS011;65074;50.436;8.672;2023-08-06T00:05:30;11.90;;;7.55;;
76256;SDS011;65074;50.436;8.672;2023-08-06T00:07:55;11.13;;;7.80;;
76256;SDS011;65074;50.436;8.672;2023-08-06T00:10:20;12.60;;;7.30;;
76256;SDS011;65074;50.436;8.672;2023-08-06T00:12:46;11.90;;;7.80;;
76256;SDS011;65074;50.436;8.672;2023-08-06T00:15:11;9.87;;;7.53;;
76256;SDS011;65074;50.436;8.672;2023-08-06T00:17:37;9.60;;;7.30;;
76256;SDS011;65074;50.436;8.672;2023-08-06T00:20:03;10.93;;;7.68;;
76256;SDS011;65074;50.436;8.672;2023-08-06T00:22:34;10.20;;;7.00;;
76256;SDS011;65074;50.436;8.672;2023-08-06T00:25:00;9.68;;;7.30;;
76256;SDS011;65074;50.436;8.672;2023-08-06T00:27:25;11.53;;;7.10;;
76256;SDS011;65074;50.436;8.672;2023-08-06T00:29:51;11.00;;;7.88;;
76256;SDS011;65074;50.436;8.672;2023-08-06T00:32:16;10.03;;;7.10;;
76256;SDS011;65074;50.436;8.672;2023-08-06T00:34:42;10.88;;;7.10;;
76256;SDS011;65074;50.436;8.672;2023-08-06T00:37:07;11.15;;;8.00;;
76256;SDS011;65074;50.436;8.672;2023-08-06T00:39:32;10.73;;;7.43;;
76256;SDS011;65074;50.436;8.672;2023-08-06T00:41:58;9.70;;;7.05;;
76256;SDS011;65074;50.436;8.672;2023-08-06T00:44:23;10.43;;;7.13;;
76256;SDS011;65074;50.436;8.672;2023-08-06T00:46:48;12.48;;;7.80;;
76256;SDS011;65074;50.436;8.672;2023-08-06T00:49:14;9.48;;;7.07;;
76256;SDS011;65074;50.436;8.672;2023-08-06T00:51:39;10.40;;;7.53;;
76256;SDS011;65074;50.436;8.672;2023-08-06T00:54:04;10.47;;;7.57;;
76256;SDS011;65074;50.436;8.672;2023-08-06T00:56:30;12.07;;;7.50;;
76256;SDS011;65074;50.436;8.672;2023-08-06T00:58:55;8.85;;;7.13;;
76256;SDS011;65074;50.436;8.672;2023-08-06T01:01:20;14.82;;;7.43;;
76256;SDS011;65074;50.436;8.672;2023-08-06T01:03:46;10.27;;;7.17;;
76256;SDS011;65074;50.436;8.672;2023-08-06T01:06:11;11.90;;;7.55;;
76256;SDS011;65074;50.436;8.672;2023-08-06T01:08:46;9.95;;;6.75;;
76256;SDS011;65074;50.436;8.672;2023-08-06T01:13:45;9.55;;;7.07;;
76256;SDS011;65074;50.436;8.672;2023-08-06T01:16:15;9.75;;;6.70;;
76256;SDS011;65074;50.436;8.672;2023-08-06T01:18:40;10.70;;;7.50;;
76256;SDS011;65074;50.436;8.672;2023-08-06T01:21:07;10.48;;;6.93;;
76256;SDS011;65074;50.436;8.672;2023-08-06T01:23:32;8.45;;;6.32;;
76256;SDS011;65074;50.436;8.672;2023-08-06T01:26:12;8.10;;;6.05;;
76256;SDS011;65074;50.436;8.672;2023-08-06T01:31:32;8.65;;;5.90;;
76256;SDS011;65074;50.436;8.672;2023-08-06T01:33:59;8.13;;;6.00;;
76256;SDS011;65074;50.436;8.672;2023-08-06T01:36:25;7.93;;;5.43;;
76256;SDS011;65074;50.436;8.672;2023-08-06T01:38:52;7.20;;;5.20;;
76256;SDS011;65074;50.436;8.672;2023-08-06T01:41:18;6.97;;;4.82;;
76256;SDS011;65074;50.436;8.672;2023-08-06T01:43:43;8.38;;;5.35;;
76256;SDS011;65074;50.436;8.672;2023-08-06T01:46:08;8.80;;;5.50;;
76256;SDS011;65074;50.436;8.672;2023-08-06T01:48:34;9.53;;;5.33;;
76256;SDS011;65074;50.436;8.672;2023-08-06T01:50:59;7.85;;;5.55;;
76256;SDS011;65074;50.436;8.672;2023-08-06T01:53:24;6.60;;;5.23;;
76256;SDS011;65074;50.436;8.672;2023-08-06T01:55:51;9.10;;;5.55;;
76256;SDS011;65074;50.436;8.672;2023-08-06T01:58:16;7.93;;;5.53;;
76256;SDS011;65074;50.436;8.672;2023-08-06T02:00:41;8.10;;;5.65;;
76256;SDS011;65074;50.436;8.672;2023-08-06T02:03:07;7.17;;;5.10;;
76256;SDS011;65074;50.436;8.672;2023-08-06T02:05:32;8.33;;;5.50;;
76256;SDS011;65074;50.436;8.672;2023-08-06T02:07:57;7.13;;;5.55;;
76256;SDS011;65074;50.436;8.672;2023-08-06T02:10:23;6.90;;;5.10;;
76256;SDS011;65074;50.436;8.672;2023-08-06T02:12:48;8.10;;;5.35;;
76256;SDS011;65074;50.436;8.672;2023-08-06T02:15:13;8.40;;;5.13;;
76256;SDS011;65074;50.436;8.672;2023-08-06T02:17:38;7.43;;;4.97;;
76256;SDS011;65074;50.436;8.672;2023-08-06T02:20:04;7.13;;;5.32;;
76256;SDS011;65074;50.436;8.672;2023-08-06T02:22:30;6.90;;;5.20;;
76256;SDS011;65074;50.436;8.672;2023-08-06T02:24:55;8.13;;;4.83;;
76256;SDS011;65074;50.436;8.672;2023-08-06T02:27:20;6.87;;;4.90;;
76256;SDS011;65074;50.436;8.672;2023-08-06T02:29:46;8.00;;;5.17;;
76256;SDS011;65074;50.436;8.672;2023-08-06T02:32:11;10.43;;;6.00;;
76256;SDS011;65074;50.436;8.672;2023-08-06T02:34:36;10.00;;;5.50;;
76256;SDS011;65074;50.436;8.672;2023-08-06T02:37:01;8.53;;;5.30;;
76256;SDS011;65074;50.436;8.672;2023-08-06T02:39:27;7.43;;;5.60;;
76256;SDS011;65074;50.436;8.672;2023-08-06T02:41:52;7.97;;;5.57;;
76256;SDS011;65074;50.436;8.672;2023-08-06T02:44:17;6.67;;;5.03;;
76256;SDS011;65074;50.436;8.672;2023-08-06T02:46:44;8.07;;;5.07;;
76256;SDS011;65074;50.436;8.672;2023-08-06T02:49:09;6.40;;;4.80;;
76256;SDS011;65074;50.436;8.672;2023-08-06T02:51:34;6.93;;;4.80;;
76256;SDS011;65074;50.436;8.672;2023-08-06T02:54:00;6.10;;;4.97;;
76256;SDS011;65074;50.436;8.672;2023-08-06T02:56:25;6.97;;;5.25;;
76256;SDS011;65074;50.436;8.672;2023-08-06T02:59:11;8.45;;;4.85;;
76256;SDS011;65074;50.436;8.672;2023-08-06T03:01:49;6.90;;;5.00;;
76256;SDS011;65074;50.436;8.672;2023-08-06T03:04:21;6.57;;;4.43;;
76256;SDS011;65074;50.436;8.672;2023-08-06T03:06:51;8.15;;;5.05;;
76256;SDS011;65074;50.436;8.672;2023-08-06T03:09:18;7.53;;;4.80;;
76256;SDS011;65074;50.436;8.672;2023-08-06T03:11:44;6.03;;;4.47;;
76256;SDS011;65074;50.436;8.672;2023-08-06T03:14:13;7.07;;;4.68;;
76256;SDS011;65074;50.436;8.672;2023-08-06T03:16:39;6.68;;;4.82;;
76256;SDS011;65074;50.436;8.672;2023-08-06T03:19:04;7.88;;;4.80;;
76256;SDS011;65074;50.436;8.672;2023-08-06T03:21:29;7.47;;;4.67;;
76256;SDS011;65074;50.436;8.672;2023-08-06T03:23:55;6.63;;;4.07;;
76256;SDS011;65074;50.436;8.672;2023-08-06T03:26:24;8.48;;;5.00;;
76256;SDS011;65074;50.436;8.672;2023-08-06T03:28:49;7.63;;;5.23;;
76256;SDS011;65074;50.436;8.672;2023-08-06T03:31:15;8.38;;;5.28;;
76256;SDS011;65074;50.436;8.672;2023-08-06T03:33:43;7.55;;;5.35;;
76256;SDS011;65074;50.436;8.672;2023-08-06T03:36:13;9.90;;;5.30;;
76256;SDS011;65074;50.436;8.672;2023-08-06T03:38:40;6.78;;;4.55;;
76256;SDS011;65074;50.436;8.672;2023-08-06T03:41:07;6.15;;;4.60;;
76256;SDS011;65074;50.436;8.672;2023-08-06T03:43:32;7.68;;;5.40;;
76256;SDS011;65074;50.436;8.672;2023-08-06T03:45:58;6.43;;;4.82;;
76256;SDS011;65074;50.436;8.672;2023-08-06T03:48:24;5.63;;;4.63;;
76256;SDS011;65074;50.436;8.672;2023-08-06T03:50:49;6.07;;;4.83;;
76256;SDS011;65074;50.436;8.672;2023-08-06T03:53:16;6.78;;;4.60;;
76256;SDS011;65074;50.436;8.672;2023-08-06T03:55:41;10.27;;;5.85;;
76256;SDS011;65074;50.436;8.672;2023-08-06T03:58:07;6.35;;;4.50;;
76256;SDS011;65074;50.436;8.672;2023-08-06T04:00:33;6.73;;;4.87;;
76256;SDS011;65074;50.436;8.672;2023-08-06T04:02:58;7.57;;;5.23;;
76256;SDS011;65074;50.436;8.672;2023-08-06T04:05:23;8.17;;;4.73;;
76256;SDS011;65074;50.436;8.672;2023-08-06T04:07:48;7.50;;;5.40;;
76256;SDS011;65074;50.436;8.672;2023-08-06T04:10:14;7.90;;;5.13;;
76256;SDS011;65074;50.436;8.672;2023-08-06T04:12:39;8.60;;;5.70;;
76256;SDS011;65074;50.436;8.672;2023-08-06T04:15:04;8.70;;;5.95;;
76256;SDS011;65074;50.436;8.672;2023-08-06T04:17:30;9.05;;;5.20;;
76256;SDS011;65074;50.436;8.672;2023-08-06T04:19:55;8.73;;;5.90;;
76256;SDS011;65074;50.436;8.672;2023-08-06T04:22:23;6.65;;;5.25;;
76256;SDS011;65074;50.436;8.672;2023-08-06T04:24:48;7.65;;;4.95;;
76256;SDS011;65074;50.436;8.672;2023-08-06T04:27:14;8.75;;;5.70;;
76256;SDS011;65074;50.436;8.672;2023-08-06T04:29:40;9.45;;;5.70;;
76256;SDS011;65074;50.436;8.672;2023-08-06T04:32:07;8.50;;;6.20;;
76256;SDS011;65074;50.436;8.672;2023-08-06T04:34:33;6.65;;;4.78;;
76256;SDS011;65074;50.436;8.672;2023-08-06T04:36:59;6.25;;;4.75;;
76256;SDS011;65074;50.436;8.672;2023-08-06T04:39:25;7.38;;;5.53;;
76256;SDS011;65074;50.436;8.672;2023-08-06T04:41:50;6.43;;;4.77;;
76256;SDS011;65074;50.436;8.672;2023-08-06T04:44:15;10.70;;;4.65;;
76256;SDS011;65074;50.436;8.672;2023-08-06T04:46:41;7.90;;;4.57;;
76256;SDS011;65074;50.436;8.672;2023-08-06T04:49:06;6.65;;;4.43;;
76256;SDS011;65074;50.436;8.672;2023-08-06T04:51:31;7.60;;;4.90;;
76256;SDS011;65074;50.436;8.672;2023-08-06T04:53:57;6.87;;;5.23;;
76256;SDS011;65074;50.436;8.672;2023-08-06T04:56:22;5.85;;;4.28;;
76256;SDS011;65074;50.436;8.672;2023-08-06T04:58:47;7.73;;;5.10;;
76256;SDS011;65074;50.436;8.672;2023-08-06T05:01:13;8.00;;;3.83;;
76256;SDS011;65074;50.436;8.672;2023-08-06T05:03:38;6.47;;;4.90;;
76256;SDS011;65074;50.436;8.672;2023-08-06T05:06:03;5.83;;;4.67;;
76256;SDS011;65074;50.436;8.672;2023-08-06T05:08:29;8.07;;;5.10;;
76256;SDS011;65074;50.436;8.672;2023-08-06T05:10:54;6.20;;;4.83;;
76256;SDS011;65074;50.436;8.672;2023-08-06T05:13:19;7.22;;;5.13;;
76256;SDS011;65074;50.436;8.672;2023-08-06T05:15:44;5.82;;;4.70;;
76256;SDS011;65074;50.436;8.672;2023-08-06T05:18:11;7.75;;;5.30;;
76256;SDS011;65074;50.436;8.672;2023-08-06T05:20:37;6.82;;;4.93;;
76256;SDS011;65074;50.436;8.672;2023-08-06T05:23:02;7.43;;;5.30;;
76256;SDS011;65074;50.436;8.672;2023-08-06T05:25:28;7.30;;;4.30;;
76256;SDS011;65074;50.436;8.672;2023-08-06T05:27:53;5.07;;;3.77;;
76256;SDS011;65074;50.436;8.672;2023-08-06T05:30:18;4.27;;;3.10;;
76256;SDS011;65074;50.436;8.672;2023-08-06T05:32:43;4.53;;;3.33;;
76256;SDS011;65074;50.436;8.672;2023-08-06T05:35:09;5.90;;;3.57;;
76256;SDS011;65074;50.436;8.672;2023-08-06T05:37:34;4.03;;;3.53;;
76256;SDS011;65074;50.436;8.672;2023-08-06T05:39:59;6.53;;;3.40;;
76256;SDS011;65074;50.436;8.672;2023-08-06T05:42:24;6.63;;;3.20;;
76256;SDS011;65074;50.436;8.672;2023-08-06T05:44:49;4.53;;;2.67;;
76256;SDS011;65074;50.436;8.672;2023-08-06T05:47:15;5.70;;;2.80;;
76256;SDS011;65074;50.436;8.672;2023-08-06T05:49:40;3.80;;;2.40;;
76256;SDS011;65074;50.436;8.672;2023-08-06T05:52:05;3.53;;;2.53;;
76256;SDS011;65074;50.436;8.672;2023-08-06T05:54:31;5.78;;;2.60;;
76256;SDS011;65074;50.436;8.672;2023-08-06T05:56:56;7.72;;;2.70;;
76256;SDS011;65074;50.436;8.672;2023-08-06T05:59:22;4.10;;;2.33;;
76256;SDS011;65074;50.436;8.672;2023-08-06T06:01:47;3.43;;;2.17;;
76256;SDS011;65074;50.436;8.672;2023-08-06T06:04:12;2.63;;;1.80;;
76256;SDS011;65074;50.436;8.672;2023-08-06T06:06:37;3.57;;;1.90;;
76256;SDS011;65074;50.436;8.672;2023-08-06T06:09:03;3.45;;;1.60;;
76256;SDS011;65074;50.436;8.672;2023-08-06T06:11:28;2.10;;;1.60;;
76256;SDS011;65074;50.436;8.672;2023-08-06T06:13:54;2.50;;;1.70;;
76256;SDS011;65074;50.436;8.672;2023-08-06T06:16:19;2.75;;;1.30;;
76256;SDS011;65074;50.436;8.672;2023-08-06T06:18:44;2.37;;;1.87;;
76256;SDS011;65074;50.436;8.672;2023-08-06T06:21:10;2.37;;;1.67;;
76256;SDS011;65074;50.436;8.672;2023-08-06T06:23:35;2.30;;;1.40;;
76256;SDS011;65074;50.436;8.672;2023-08-06T06:26:00;1.77;;;1.40;;
76256;SDS011;65074;50.436;8.672;2023-08-06T06:28:26;1.40;;;1.13;;
76256;SDS011;65074;50.436;8.672;2023-08-06T06:30:51;2.17;;;1.00;;
76256;SDS011;65074;50.436;8.672;2023-08-06T06:33:16;2.53;;;1.23;;
76256;SDS011;65074;50.436;8.672;2023-08-06T06:35:41;1.10;;;0.80;;
76256;SDS011;65074;50.436;8.672;2023-08-06T06:38:07;0.87;;;0.77;;
76256;SDS011;65074;50.436;8.672;2023-08-06T06:40:32;1.00;;;0.80;;
76256;SDS011;65074;50.436;8.672;2023-08-06T06:42:58;1.27;;;0.50;;
76256;SDS011;65074;50.436;8.672;2023-08-06T06:45:23;0.70;;;0.60;;
76256;SDS011;65074;50.436;8.672;2023-08-06T06:47:48;1.43;;;0.50;;
76256;SDS011;65074;50.436;8.672;2023-08-06T06:50:13;4.90;;;1.07;;
76256;SDS011;65074;50.436;8.672;2023-08-06T06:52:39;1.37;;;0.60;;
76256;SDS011;65074;50.436;8.672;2023-08-06T06:55:04;0.60;;;0.47;;
76256;SDS011;65074;50.436;8.672;2023-08-06T06:57:29;0.50;;;0.50;;
76256;SDS011;65074;50.436;8.672;2023-08-06T06:59:55;0.60;;;0.50;;
76256;SDS011;65074;50.436;8.672;2023-08-06T07:02:23;1.05;;;0.40;;
76256;SDS011;65074;50.436;8.672;2023-08-06T07:04:51;0.93;;;0.32;;
76256;SDS011;65074;50.436;8.672;2023-08-06T07:07:16;1.42;;;0.88;;
76256;SDS011;65074;50.436;8.672;2023-08-06T07:09:42;0.50;;;0.40;;
76256;SDS011;65074;50.436;8.672;2023-08-06T07:12:07;1.00;;;0.63;;
76256;SDS011;65074;50.436;8.672;2023-08-06T07:14:32;0.57;;;0.40;;
76256;SDS011;65074;50.436;8.672;2023-08-06T07:16:58;0.40;;;0.30;;
76256;SDS011;65074;50.436;8.672;2023-08-06T07:19:23;0.30;;;0.30;;
76256;SDS011;65074;50.436;8.672;2023-08-06T07:21:48;0.23;;;0.23;;
76256;SDS011;65074;50.436;8.672;2023-08-06T07:24:13;0.37;;;0.27;;
76256;SDS011;65074;50.436;8.672;2023-08-06T07:26:39;0.77;;;0.43;;
76256;SDS011;65074;50.436;8.672;2023-08-06T07:29:04;0.30;;;0.30;;
76256;SDS011;65074;50.436;8.672;2023-08-06T07:31:29;0.40;;;0.30;;
76256;SDS011;65074;50.436;8.672;2023-08-06T07:33:54;0.90;;;0.30;;
76256;SDS011;65074;50.436;8.672;2023-08-06T07:36:20;0.40;;;0.27;;
76256;SDS011;65074;50.436;8.672;2023-08-06T07:38:45;0.53;;;0.40;;
76256;SDS011;65074;50.436;8.672;2023-08-06T07:41:10;1.10;;;0.43;;
76256;SDS011;65074;50.436;8.672;2023-08-06T07:43:35;1.30;;;0.50;;
76256;SDS011;65074;50.436;8.672;2023-08-06T07:46:01;0.50;;;0.50;;
76256;SDS011;65074;50.436;8.672;2023-08-06T07:48:26;0.85;;;0.57;;
76256;SDS011;65074;50.436;8.672;2023-08-06T07:50:52;0.70;;;0.40;;
76256;SDS011;65074;50.436;8.672;2023-08-06T07:53:22;0.40;;;0.30;;
76256;SDS011;65074;50.436;8.672;2023-08-06T07:55:50;1.30;;;0.40;;
76256;SDS011;65074;50.436;8.672;2023-08-06T07:58:16;0.30;;;0.20;;
76256;SDS011;65074;50.436;8.672;2023-08-06T08:00:42;0.90;;;0.20;;
76256;SDS011;65074;50.436;8.672;2023-08-06T08:03:10;0.32;;;0.30;;
76256;SDS011;65074;50.436;8.672;2023-08-06T08:05:35;0.40;;;0.25;;
76256;SDS011;65074;50.436;8.672;2023-08-06T08:08:01;0.20;;;0.20;;
76256;SDS011;65074;50.436;8.672;2023-08-06T08:10:26;2.05;;;0.20;;
76256;SDS011;65074;50.436;8.672;2023-08-06T08:12:52;0.20;;;0.15;;
76256;SDS011;65074;50.436;8.672;2023-08-06T08:15:17;1.23;;;0.20;;
76256;SDS011;65074;50.436;8.672;2023-08-06T08:17:43;0.43;;;0.30;;
76256;SDS011;65074;50.436;8.672;2023-08-06T08:20:08;1.13;;;0.23;;
76256;SDS011;65074;50.436;8.672;2023-08-06T08:22:34;0.60;;;0.30;;
76256;SDS011;65074;50.436;8.672;2023-08-06T08:24:59;0.30;;;0.30;;
76256;SDS011;65074;50.436;8.672;2023-08-06T08:27:24;6.70;;;1.80;;
76256;SDS011;65074;50.436;8.672;2023-08-06T08:29:49;0.30;;;0.20;;
76256;SDS011;65074;50.436;8.672;2023-08-06T08:32:15;0.30;;;0.10;;
76256;SDS011;65074;50.436;8.672;2023-08-06T08:34:40;0.30;;;0.20;;
76256;SDS011;65074;50.436;8.672;2023-08-06T08:37:05;0.20;;;0.10;;
76256;SDS011;65074;50.436;8.672;2023-08-06T08:39:31;0.32;;;0.20;;
76256;SDS011;65074;50.436;8.672;2023-08-06T08:41:56;1.00;;;0.20;;
76256;SDS011;65074;50.436;8.672;2023-08-06T08:44:21;0.20;;;0.20;;
76256;SDS011;65074;50.436;8.672;2023-08-06T08:46:47;0.13;;;0.10;;
76256;SDS011;65074;50.436;8.672;2023-08-06T08:49:13;0.30;;;0.20;;
76256;SDS011;65074;50.436;8.672;2023-08-06T08:51:38;0.30;;;0.20;;
76256;SDS011;65074;50.436;8.672;2023-08-06T08:54:03;0.03;;;0.03;;
76256;SDS011;65074;50.436;8.672;2023-08-06T08:56:29;0.20;;;0.15;;
76256;SDS011;65074;50.436;8.672;2023-08-06T08:58:54;0.27;;;0.20;;
76256;SDS011;65074;50.436;8.672;2023-08-06T09:01:20;0.65;;;0.30;;
76256;SDS011;65074;50.436;8.672;2023-08-06T09:03:46;0.57;;;0.20;;
76256;SDS011;65074;50.436;8.672;2023-08-06T09:06:12;0.40;;;0.40;;
76256;SDS011;65074;50.436;8.672;2023-08-06T09:08:39;0.30;;;0.20;;
76256;SDS011;65074;50.436;8.672;2023-08-06T09:13:31;0.23;;;0.20;;
76256;SDS011;65074;50.436;8.672;2023-08-06T09:15:57;0.50;;;0.37;;
76256;SDS011;65074;50.436;8.672;2023-08-06T09:18:25;0.90;;;0.30;;
76256;SDS011;65074;50.436;8.672;2023-08-06T09:20:52;0.30;;;0.30;;
76256;SDS011;65074;50.436;8.672;2023-08-06T09:23:17;1.20;;;0.20;;
76256;SDS011;65074;50.436;8.672;2023-08-06T09:25:42;1.13;;;0.35;;
76256;SDS011;65074;50.436;8.672;2023-08-06T09:28:08;0.20;;;0.20;;
76256;SDS011;65074;50.436;8.672;2023-08-06T09:30:34;1.05;;;0.35;;
76256;SDS011;65074;50.436;8.672;2023-08-06T09:32:59;0.30;;;0.30;;
76256;SDS011;65074;50.436;8.672;2023-08-06T09:35:25;1.02;;;0.43;;
76256;SDS011;65074;50.436;8.672;2023-08-06T09:37:50;1.40;;;0.30;;
76256;SDS011;65074;50.436;8.672;2023-08-06T09:40:23;0.60;;;0.43;;
76256;SDS011;65074;50.436;8.672;2023-08-06T09:42:49;0.30;;;0.30;;
76256;SDS011;65074;50.436;8.672;2023-08-06T09:45:16;1.08;;;0.40;;
76256;SDS011;65074;50.436;8.672;2023-08-06T09:47:41;0.75;;;0.45;;
76256;SDS011;65074;50.436;8.672;2023-08-06T09:50:14;1.27;;;0.40;;
76256;SDS011;65074;50.436;8.672;2023-08-06T09:52:39;1.45;;;0.40;;
76256;SDS011;65074;50.436;8.672;2023-08-06T09:55:05;0.43;;;0.28;;
76256;SDS011;65074;50.436;8.672;2023-08-06T09:57:30;2.05;;;0.30;;
76256;SDS011;65074;50.436;8.672;2023-08-06T09:59:56;0.73;;;0.35;;
76256;SDS011;65074;50.436;8.672;2023-08-06T10:02:21;0.30;;;0.30;;
76256;SDS011;65074;50.436;8.672;2023-08-06T10:04:49;0.40;;;0.20;;
76256;SDS011;65074;50.436;8.672;2023-08-06T10:07:15;0.50;;;0.30;;
76256;SDS011;65074;50.436;8.672;2023-08-06T10:09:43;0.43;;;0.30;;
76256;SDS011;65074;50.436;8.672;2023-08-06T10:12:08;0.57;;;0.30;;
76256;SDS011;65074;50.436;8.672;2023-08-06T10:14:35;0.50;;;0.30;;
76256;SDS011;65074;50.436;8.672;2023-08-06T10:17:02;0.30;;;0.28;;
76256;SDS011;65074;50.436;8.672;2023-08-06T10:19:27;0.45;;;0.43;;
76256;SDS011;65074;50.436;8.672;2023-08-06T10:22:07;0.40;;;0.30;;
76256;SDS011;65074;50.436;8.672;2023-08-06T10:24:52;0.70;;;0.30;;
76256;SDS011;65074;50.436;8.672;2023-08-06T10:29:56;0.20;;;0.20;;
76256;SDS011;65074;50.436;8.672;2023-08-06T10:32:22;0.40;;;0.40;;
76256;SDS011;65074;50.436;8.672;2023-08-06T10:35:07;0.95;;;0.30;;
76256;SDS011;65074;50.436;8.672;2023-08-06T10:37:35;0.70;;;0.50;;
76256;SDS011;65074;50.436;8.672;2023-08-06T10:42:27;0.30;;;0.30;;
76256;SDS011;65074;50.436;8.672;2023-08-06T10:47:40;0.50;;;0.30;;
76256;SDS011;65074;50.436;8.672;2023-08-06T10:50:10;0.85;;;0.30;;
76256;SDS011;65074;50.436;8.672;2023-08-06T10:52:36;0.60;;;0.40;;
76256;SDS011;65074;50.436;8.672;2023-08-06T10:55:01;0.40;;;0.30;;
76256;SDS011;65074;50.436;8.672;2023-08-06T10:57:26;0.52;;;0.40;;
76256;SDS011;65074;50.436;8.672;2023-08-06T10:59:51;1.17;;;0.20;;
76256;SDS011;65074;50.436;8.672;2023-08-06T11:02:17;0.33;;;0.33;;
76256;SDS011;65074;50.436;8.672;2023-08-06T11:04:42;0.30;;;0.30;;
76256;SDS011;65074;50.436;8.672;2023-08-06T11:07:07;0.43;;;0.43;;
76256;SDS011;65074;50.436;8.672;2023-08-06T11:09:33;0.23;;;0.23;;
76256;SDS011;65074;50.436;8.672;2023-08-06T11:11:58;0.40;;;0.40;;
76256;SDS011;65074;50.436;8.672;2023-08-06T11:14:23;0.43;;;0.40;;
76256;SDS011;65074;50.436;8.672;2023-08-06T11:16:48;0.93;;;0.50;;
76256;SDS011;65074;50.436;8.672;2023-08-06T11:19:15;1.63;;;0.50;;
76256;SDS011;65074;50.436;8.672;2023-08-06T11:21:41;1.35;;;0.40;;
76256;SDS011;65074;50.436;8.672;2023-08-06T11:24:09;0.63;;;0.60;;
76256;SDS011;65074;50.436;8.672;2023-08-06T11:26:35;0.45;;;0.40;;
76256;SDS011;65074;50.436;8.672;2023-08-06T11:29:01;3.50;;;0.55;;
76256;SDS011;65074;50.436;8.672;2023-08-06T11:31:27;1.73;;;0.50;;
76256;SDS011;65074;50.436;8.672;2023-08-06T11:33:53;0.60;;;0.40;;
76256;SDS011;65074;50.436;8.672;2023-08-06T11:36:34;1.70;;;0.60;;
76256;SDS011;65074;50.436;8.672;2023-08-06T11:39:02;1.38;;;0.50;;
76256;SDS011;65074;50.436;8.672;2023-08-06T11:41:28;0.63;;;0.43;;
76256;SDS011;65074;50.436;8.672;2023-08-06T11:43:53;0.40;;;0.40;;
76256;SDS011;65074;50.436;8.672;2023-08-06T11:46:19;1.90;;;0.70;;
76256;SDS011;65074;50.436;8.672;2023-08-06T11:48:51;0.57;;;0.40;;
76256;SDS011;65074;50.436;8.672;2023-08-06T11:51:16;1.13;;;0.40;;
76256;SDS011;65074;50.436;8.672;2023-08-06T11:53:41;2.00;;;0.70;;
76256;SDS011;65074;50.436;8.672;2023-08-06T11:56:11;3.22;;;0.60;;
76256;SDS011;65074;50.436;8.672;2023-08-06T11:58:36;0.60;;;0.60;;
76256;SDS011;65074;50.436;8.672;2023-08-06T12:01:01;0.60;;;0.50;;
76256;SDS011;65074;50.436;8.672;2023-08-06T12:03:27;1.27;;;0.57;;
76256;SDS011;65074;50.436;8.672;2023-08-06T12:05:55;0.22;;;0.20;;
76256;SDS011;65074;50.436;8.672;2023-08-06T12:08:20;0.83;;;0.23;;
76256;SDS011;65074;50.436;8.672;2023-08-06T12:10:45;0.37;;;0.10;;
76256;SDS011;65074;50.436;8.672;2023-08-06T12:13:11;0.35;;;0.20;;
76256;SDS011;65074;50.436;8.672;2023-08-06T12:15:38;0.30;;;0.15;;
76256;SDS011;65074;50.436;8.672;2023-08-06T12:18:03;0.90;;;0.40;;
76256;SDS011;65074;50.436;8.672;2023-08-06T12:20:28;0.30;;;0.20;;
76256;SDS011;65074;50.436;8.672;2023-08-06T12:22:54;0.67;;;0.37;;
76256;SDS011;65074;50.436;8.672;2023-08-06T12:25:19;0.20;;;0.20;;
76256;SDS011;65074;50.436;8.672;2023-08-06T12:27:44;0.25;;;0.25;;
76256;SDS011;65074;50.436;8.672;2023-08-06T12:30:44;0.43;;;0.35;;
76256;SDS011;65074;50.436;8.672;2023-08-06T12:36:32;1.60;;;0.30;;
76256;SDS011;65074;50.436;8.672;2023-08-06T12:38:57;0.80;;;0.20;;
76256;SDS011;65074;50.436;8.672;2023-08-06T12:41:22;1.40;;;0.30;;
76256;SDS011;65074;50.436;8.672;2023-08-06T12:43:47;0.10;;;0.10;;
76256;SDS011;65074;50.436;8.672;2023-08-06T12:46:13;0.33;;;0.20;;
76256;SDS011;65074;50.436;8.672;2023-08-06T12:48:38;0.75;;;0.35;;
76256;SDS011;65074;50.436;8.672;2023-08-06T12:51:03;1.17;;;0.40;;
76256;SDS011;65074;50.436;8.672;2023-08-06T12:53:28;0.80;;;0.20;;
76256;SDS011;65074;50.436;8.672;2023-08-06T12:55:53;0.30;;;0.27;;
76256;SDS011;65074;50.436;8.672;2023-08-06T12:58:19;0.80;;;0.40;;
76256;SDS011;65074;50.436;8.672;2023-08-06T13:00:44;0.63;;;0.43;;
76256;SDS011;65074;50.436;8.672;2023-08-06T13:03:09;0.60;;;0.47;;
76256;SDS011;65074;50.436;8.672;2023-08-06T13:05:35;0.40;;;0.37;;
76256;SDS011;65074;50.436;8.672;2023-08-06T13:08:01;0.40;;;0.40;;
76256;SDS011;65074;50.436;8.672;2023-08-06T13:10:26;0.40;;;0.30;;
76256;SDS011;65074;50.436;8.672;2023-08-06T13:12:53;0.50;;;0.40;;
76256;SDS011;65074;50.436;8.672;2023-08-06T13:15:18;1.30;;;0.43;;
76256;SDS011;65074;50.436;8.672;2023-08-06T13:17:46;1.20;;;0.50;;
76256;SDS011;65074;50.436;8.672;2023-08-06T13:20:11;0.87;;;0.50;;
76256;SDS011;65074;50.436;8.672;2023-08-06T13:22:36;0.60;;;0.60;;
76256;SDS011;65074;50.436;8.672;2023-08-06T13:25:01;0.40;;;0.40;;
76256;SDS011;65074;50.436;8.672;2023-08-06T13:27:27;0.50;;;0.40;;
76256;SDS011;65074;50.436;8.672;2023-08-06T13:29:52;0.80;;;0.70;;
76256;SDS011;65074;50.436;8.672;2023-08-06T13:32:20;0.67;;;0.50;;
76256;SDS011;65074;50.436;8.672;2023-08-06T13:34:46;0.95;;;0.52;;
76256;SDS011;65074;50.436;8.672;2023-08-06T13:37:11;0.53;;;0.40;;
76256;SDS011;65074;50.436;8.672;2023-08-06T13:39:36;0.50;;;0.50;;
76256;SDS011;65074;50.436;8.672;2023-08-06T13:42:02;2.20;;;0.50;;
76256;SDS011;65074;50.436;8.672;2023-08-06T13:44:27;0.57;;;0.50;;
76256;SDS011;65074;50.436;8.672;2023-08-06T13:46:53;1.55;;;0.55;;
76256;SDS011;65074;50.436;8.672;2023-08-06T13:49:19;1.03;;;0.77;;
76256;SDS011;65074;50.436;8.672;2023-08-06T13:51:44;1.47;;;0.60;;
76256;SDS011;65074;50.436;8.672;2023-08-06T13:54:09;1.63;;;0.80;;
76256;SDS011;65074;50.436;8.672;2023-08-06T13:56:34;0.80;;;0.53;;
76256;SDS011;65074;50.436;8.672;2023-08-06T13:59:00;0.80;;;0.52;;
76256;SDS011;65074;50.436;8.672;2023-08-06T14:01:25;3.43;;;0.73;;
76256;SDS011;65074;50.436;8.672;2023-08-06T14:03:50;2.43;;;0.50;;
76256;SDS011;65074;50.436;8.672;2023-08-06T14:06:16;1.25;;;0.63;;
76256;SDS011;65074;50.436;8.672;2023-08-06T14:08:41;1.00;;;0.60;;
76256;SDS011;65074;50.436;8.672;2023-08-06T14:11:06;0.83;;;0.73;;
76256;SDS011;65074;50.436;8.672;2023-08-06T14:13:32;1.48;;;0.70;;
76256;SDS011;65074;50.436;8.672;2023-08-06T14:15:57;1.13;;;0.63;;
76256;SDS011;65074;50.436;8.672;2023-08-06T14:18:22;0.70;;;0.70;;
76256;SDS011;65074;50.436;8.672;2023-08-06T14:20:48;0.83;;;0.57;;
76256;SDS011;65074;50.436;8.672;2023-08-06T14:23:13;1.20;;;1.00;;
76256;SDS011;65074;50.436;8.672;2023-08-06T14:25:38;1.73;;;0.70;;
76256;SDS011;65074;50.436;8.672;2023-08-06T14:28:04;1.50;;;0.73;;
76256;SDS011;65074;50.436;8.672;2023-08-06T14:30:31;1.73;;;0.45;;
76256;SDS011;65074;50.436;8.672;2023-08-06T14:32:56;1.20;;;0.70;;
76256;SDS011;65074;50.436;8.672;2023-08-06T14:35:22;0.70;;;0.50;;
76256;SDS011;65074;50.436;8.672;2023-08-06T14:37:47;1.03;;;0.70;;
76256;SDS011;65074;50.436;8.672;2023-08-06T14:40:13;2.03;;;0.60;;
76256;SDS011;65074;50.436;8.672;2023-08-06T14:42:38;0.50;;;0.50;;
76256;SDS011;65074;50.436;8.672;2023-08-06T14:45:04;0.70;;;0.50;;
76256;SDS011;65074;50.436;8.672;2023-08-06T14:47:29;2.35;;;0.70;;
76256;SDS011;65074;50.436;8.672;2023-08-06T14:49:54;0.57;;;0.50;;
76256;SDS011;65074;50.436;8.672;2023-08-06T14:52:19;0.80;;;0.50;;
76256;SDS011;65074;50.436;8.672;2023-08-06T14:54:45;0.97;;;0.60;;
76256;SDS011;65074;50.436;8.672;2023-08-06T14:57:10;0.67;;;0.30;;